createdAt,value
2023-04-01T00:00:13.444Z,11.50
2023-04-01T00:05:17.548Z,12.48
2023-04-01T00:10:21.216Z,12.07
2023-04-01T00:15:26.317Z,11.07
2023-04-01T00:20:30.282Z,11.95
2023-04-01T00:25:34.057Z,12.57
2023-04-01T00:30:39.982Z,11.37
2023-04-01T00:35:43.443Z,11.35
2023-04-01T00:40:48.882Z,11.50
2023-04-01T00:45:53.789Z,12.75
2023-04-01T00:56:07.439Z,11.45
2023-04-01T01:01:12.528Z,12.52
2023-04-01T01:06:34.424Z,11.43
2023-04-01T01:11:43.602Z,11.60
2023-04-01T01:16:54.360Z,11.63
2023-04-01T01:22:19.576Z,12.07
2023-04-01T01:32:51.948Z,11.93
2023-04-01T01:38:00.046Z,11.40
2023-04-01T01:43:08.343Z,12.00
2023-04-01T01:48:13.443Z,11.70
2023-04-01T01:53:18.442Z,12.10
2023-04-01T02:03:31.593Z,11.77
2023-04-01T02:08:42.100Z,11.38
2023-04-01T02:13:50.350Z,12.45
2023-04-01T02:18:56.278Z,12.20
2023-04-01T02:24:03.425Z,11.85
2023-04-01T02:29:08.895Z,12.60
2023-04-01T02:34:12.421Z,11.98
2023-04-01T02:39:18.144Z,11.32
2023-04-01T02:44:21.710Z,11.25
2023-04-01T02:49:25.145Z,11.70
2023-04-01T02:54:29.953Z,12.20
2023-04-01T03:04:36.574Z,11.05
2023-04-01T03:09:41.903Z,11.68
2023-04-01T03:14:45.344Z,12.25
2023-04-01T03:19:48.778Z,11.30
2023-04-01T03:24:53.610Z,11.10
2023-04-01T03:35:00.350Z,10.55
2023-04-01T03:40:06.131Z,10.77
2023-04-01T03:45:10.237Z,10.23
2023-04-01T03:50:13.672Z,11.30
2023-04-01T03:55:19.253Z,11.40
2023-04-01T04:00:23.019Z,11.73
2023-04-01T04:05:26.925Z,12.10
2023-04-01T04:10:32.000Z,11.40
2023-04-01T04:15:35.484Z,11.88
2023-04-01T04:20:38.895Z,13.70
2023-04-01T04:25:43.957Z,13.02
2023-04-01T04:30:47.374Z,13.85
2023-04-01T04:35:51.497Z,14.60
2023-04-01T04:40:56.656Z,14.03
2023-04-01T04:46:00.118Z,13.60
2023-04-01T04:51:03.829Z,14.93
2023-04-01T04:56:09.197Z,13.65
2023-04-01T05:01:14.716Z,14.30
2023-04-01T05:06:19.730Z,13.30
2023-04-01T05:11:27.104Z,14.13
2023-04-01T05:16:32.601Z,14.02
2023-04-01T05:21:36.059Z,14.73
2023-04-01T05:26:40.964Z,13.88
2023-04-01T05:31:44.702Z,14.35
2023-04-01T05:36:48.248Z,12.80
2023-04-01T05:41:53.218Z,12.75
2023-04-01T05:51:59.840Z,12.45
2023-04-01T05:57:05.567Z,13.60
2023-04-01T06:02:11.135Z,13.93
2023-04-01T06:07:15.124Z,13.40
2023-04-01T06:12:45.479Z,12.77
2023-04-01T06:18:10.254Z,13.15
2023-04-01T06:23:27.046Z,15.48
2023-04-01T06:29:03.162Z,13.60
2023-04-01T06:34:27.908Z,14.48
2023-04-01T06:39:57.742Z,13.40
2023-04-01T06:45:16.210Z,13.68
2023-04-01T06:50:27.696Z,13.63
2023-04-01T06:55:39.019Z,15.05
2023-04-01T07:00:45.611Z,14.95
2023-04-01T07:05:51.711Z,16.02
2023-04-01T07:10:59.660Z,15.88
2023-04-01T07:16:11.134Z,14.65
2023-04-01T07:21:26.092Z,15.13
2023-04-01T07:26:29.520Z,14.70
2023-04-01T07:31:48.185Z,13.77
2023-04-01T07:37:02.490Z,14.15
2023-04-01T07:42:17.924Z,12.40
2023-04-01T07:47:33.940Z,13.15
2023-04-01T07:52:49.754Z,12.43
2023-04-01T07:58:04.331Z,11.93
2023-04-01T08:03:38.515Z,11.13
2023-04-01T08:08:58.141Z,11.63
2023-04-01T08:14:10.929Z,12.15
2023-04-01T08:19:25.163Z,15.07
2023-04-01T08:24:46.565Z,14.10
2023-04-01T08:29:55.376Z,14.38
2023-04-01T08:35:16.835Z,12.65
2023-04-01T08:40:54.316Z,12.18
2023-04-01T08:46:15.897Z,9.02
2023-04-01T08:51:54.165Z,8.60
2023-04-01T08:57:04.222Z,8.52
2023-04-01T09:02:33.398Z,7.30
2023-04-01T09:07:48.014Z,7.72
2023-04-01T09:13:08.285Z,7.55
2023-04-01T09:18:55.198Z,7.35
2023-04-01T09:24:43.033Z,7.00
2023-04-01T09:30:27.556Z,6.30
2023-04-01T09:35:48.523Z,7.30
2023-04-01T09:40:58.641Z,6.78
2023-04-01T09:46:26.094Z,7.10
2023-04-01T09:51:38.711Z,7.07
2023-04-01T09:57:19.050Z,5.97
2023-04-01T10:02:54.518Z,5.40
2023-04-01T10:08:26.534Z,6.55
2023-04-01T10:14:06.544Z,6.18
2023-04-01T10:19:58.009Z,6.68
2023-04-01T10:25:31.196Z,4.97
2023-04-01T10:31:08.590Z,5.30
2023-04-01T10:36:43.416Z,5.25
2023-04-01T10:42:10.301Z,4.97
2023-04-01T10:47:49.237Z,4.85
2023-04-01T10:53:38.932Z,4.97
2023-04-01T10:59:13.306Z,4.95
2023-04-01T11:04:59.531Z,4.80
2023-04-01T11:10:47.281Z,4.60
2023-04-01T11:16:37.208Z,4.97
2023-04-01T11:22:21.248Z,4.55
2023-04-01T11:27:44.309Z,4.55
2023-04-01T11:32:56.113Z,4.30
2023-04-01T11:38:12.878Z,4.05
2023-04-01T11:43:32.912Z,3.50
2023-04-01T11:48:49.338Z,3.38
2023-04-01T11:54:02.831Z,3.20
2023-04-01T11:59:53.868Z,3.35
2023-04-01T12:05:22.128Z,3.72
2023-04-01T12:10:35.556Z,3.40
2023-04-01T12:15:56.453Z,3.80
2023-04-01T12:21:10.892Z,3.80
2023-04-01T12:26:46.221Z,3.78
2023-04-01T12:37:11.074Z,4.28
2023-04-01T12:42:25.995Z,4.20
2023-04-01T12:53:07.893Z,4.40
2023-04-01T12:58:44.314Z,4.60
2023-04-01T13:04:05.610Z,4.43
2023-04-01T13:09:22.330Z,4.25
2023-04-01T13:14:47.289Z,4.40
2023-04-01T13:20:05.816Z,4.53
2023-04-01T13:25:24.267Z,4.60
2023-04-01T13:30:33.118Z,4.30
2023-04-01T13:35:47.013Z,4.75
2023-04-01T13:41:04.182Z,4.78
2023-04-01T13:52:11.581Z,5.07
2023-04-01T14:02:54.595Z,4.72
2023-04-01T14:08:09.555Z,5.35
2023-04-01T14:13:25.702Z,4.68
2023-04-01T14:18:55.510Z,4.55
2023-04-01T14:24:19.889Z,4.28
2023-04-01T14:29:33.223Z,4.97
2023-04-01T14:34:56.602Z,4.55
2023-04-01T14:40:22.578Z,4.13
2023-04-01T14:45:46.583Z,4.38
2023-04-01T14:50:53.810Z,4.30
2023-04-01T14:55:59.738Z,4.70
2023-04-01T15:01:28.400Z,5.07
2023-04-01T15:06:59.290Z,5.18
2023-04-01T15:12:13.461Z,4.95
2023-04-01T15:17:34.380Z,5.80
2023-04-01T15:23:04.411Z,6.22
2023-04-01T15:28:19.518Z,6.63
2023-04-01T15:38:40.902Z,6.90
2023-04-01T15:43:45.862Z,7.20
2023-04-01T15:49:00.588Z,7.13
2023-04-01T15:54:28.307Z,6.85
2023-04-01T15:59:55.839Z,7.28
2023-04-01T16:05:07.808Z,7.80
2023-04-01T16:10:28.509Z,8.63
2023-04-01T16:15:40.081Z,8.43
2023-04-01T16:20:52.359Z,9.35
2023-04-01T16:26:05.972Z,9.20
2023-04-01T16:31:16.624Z,10.10
2023-04-01T16:36:30.542Z,11.00
2023-04-01T16:41:36.922Z,11.90
2023-04-01T16:46:41.844Z,12.82
2023-04-01T16:56:57.148Z,12.80
2023-04-01T17:02:11.658Z,12.90
2023-04-01T17:07:27.780Z,12.40
2023-04-01T17:12:38.765Z,13.00
2023-04-01T17:17:52.061Z,12.68
2023-04-01T17:23:03.222Z,13.07
2023-04-01T17:28:17.453Z,12.25
2023-04-01T17:33:51.485Z,10.90
2023-04-01T17:39:08.285Z,11.02
2023-04-01T17:44:25.804Z,10.90
2023-04-01T17:49:36.595Z,11.40
2023-04-01T17:54:48.938Z,13.48
2023-04-01T18:00:03.927Z,13.02
2023-04-01T18:05:42.864Z,13.48
2023-04-01T18:11:00.912Z,12.00
2023-04-01T18:16:19.719Z,12.45
2023-04-01T18:21:33.284Z,11.55
2023-04-01T18:26:42.023Z,11.13
2023-04-01T18:31:49.475Z,11.20
2023-04-01T18:36:56.064Z,10.45
2023-04-01T18:42:10.140Z,10.27
2023-04-01T18:47:27.371Z,11.17
2023-04-01T18:52:38.432Z,10.85
2023-04-01T18:57:49.064Z,11.55
2023-04-01T19:03:00.553Z,11.10
2023-04-01T19:08:27.497Z,12.23
2023-04-01T19:13:40.253Z,11.63
2023-04-01T19:19:00.588Z,11.32
2023-04-01T19:24:39.678Z,11.25
2023-04-01T19:29:58.983Z,12.00
2023-04-01T19:35:18.489Z,11.25
2023-04-01T19:40:43.918Z,11.63
2023-04-01T19:45:53.951Z,12.68
2023-04-01T19:51:04.306Z,12.15
2023-04-01T19:56:18.238Z,12.98
2023-04-01T20:01:41.539Z,14.52
2023-04-01T20:06:54.125Z,13.27
2023-04-01T20:12:02.514Z,13.65
2023-04-01T20:17:20.728Z,12.95
2023-04-01T20:22:39.305Z,12.73
2023-04-01T20:27:48.838Z,13.57
2023-04-01T20:33:08.838Z,13.60
2023-04-01T20:39:05.994Z,14.80
2023-04-01T20:44:13.029Z,14.00
2023-04-01T20:49:48.592Z,13.50
2023-04-01T20:55:18.960Z,14.15
2023-04-01T21:00:33.997Z,15.02
2023-04-01T21:11:07.062Z,14.48
2023-04-01T21:16:26.401Z,13.85
2023-04-01T21:22:09.454Z,12.85
2023-04-01T21:27:25.313Z,13.98
2023-04-01T21:32:44.142Z,14.18
2023-04-01T21:38:23.398Z,15.65
2023-04-01T21:43:40.458Z,13.38
2023-04-01T21:49:06.874Z,14.63
2023-04-01T21:54:37.400Z,14.43
2023-04-01T22:00:12.660Z,13.95
2023-04-01T22:05:21.023Z,14.57
2023-04-01T22:10:31.825Z,14.80
2023-04-01T22:15:56.686Z,13.88
2023-04-01T22:21:06.438Z,14.57
2023-04-01T22:26:18.073Z,14.52
2023-04-01T22:31:30.983Z,13.98
2023-04-01T22:36:46.168Z,13.98
2023-04-01T22:42:10.910Z,14.00
2023-04-01T22:47:24.230Z,13.85
2023-04-01T22:52:34.458Z,15.90
2023-04-01T22:57:44.144Z,13.95
2023-04-01T23:03:02.975Z,13.75
2023-04-01T23:08:37.384Z,13.20
2023-04-01T23:13:46.415Z,14.68
2023-04-01T23:18:59.299Z,15.63
2023-04-01T23:24:07.885Z,16.45
2023-04-01T23:29:17.440Z,15.65
2023-04-01T23:34:33.490Z,15.50
2023-04-01T23:39:39.352Z,16.98
2023-04-01T23:44:44.428Z,16.15
2023-04-01T23:49:52.516Z,17.33
2023-04-01T23:54:59.336Z,19.58
